sensor_id;sensor_type;location;lat;lon;timestamp;pressure;altitude;pressure_sealevel;temperature;humidity
86202;BME280;76853;48.008;20.694;2024-02-26T00:00:24;98952.44;;;9.28;91.30
86202;BME280;76853;48.008;20.694;2024-02-26T00:01:31;98949.06;;;9.28;91.30
86202;BME280;76853;48.008;20.694;2024-02-26T00:02:36;98953.25;;;9.29;91.47
86202;BME280;76853;48.008;20.694;2024-02-26T00:03:43;98946.47;;;9.28;91.23
86202;BME280;76853;48.008;20.694;2024-02-26T00:04:49;98950.84;;;9.27;91.26
86202;BME280;76853;48.008;20.694;2024-02-26T00:05:53;98957.03;;;9.26;91.40
86202;BME280;76853;48.008;20.694;2024-02-26T00:06:56;98946.66;;;9.26;91.55
86202;BME280;76853;48.008;20.694;2024-02-26T00:08:04;98934.88;;;9.24;91.96
86202;BME280;76853;48.008;20.694;2024-02-26T00:09:08;98948.06;;;9.29;91.20
86202;BME280;76853;48.008;20.694;2024-02-26T00:10:13;98947.72;;;9.32;91.69
86202;BME280;76853;48.008;20.694;2024-02-26T00:11:17;98954.09;;;9.30;91.25
86202;BME280;76853;48.008;20.694;2024-02-26T00:12:20;98954.63;;;9.25;91.72
86202;BME280;76853;48.008;20.694;2024-02-26T00:13:24;98965.81;;;9.25;91.52
86202;BME280;76853;48.008;20.694;2024-02-26T00:14:27;98965.19;;;9.23;91.87
86202;BME280;76853;48.008;20.694;2024-02-26T00:15:31;98958.81;;;9.26;91.57
86202;BME280;76853;48.008;20.694;2024-02-26T00:16:35;98951.25;;;9.24;92.01
86202;BME280;76853;48.008;20.694;2024-02-26T00:17:39;98952.41;;;9.22;91.53
86202;BME280;76853;48.008;20.694;2024-02-26T00:18:43;98950.38;;;9.17;92.13
86202;BME280;76853;48.008;20.694;2024-02-26T00:19:52;98948.41;;;9.19;91.62
86202;BME280;76853;48.008;20.694;2024-02-26T00:20:56;98952.41;;;9.22;91.90
86202;BME280;76853;48.008;20.694;2024-02-26T00:21:59;98956.78;;;9.21;91.97
86202;BME280;76853;48.008;20.694;2024-02-26T00:23:04;98947.41;;;9.20;91.95
86202;BME280;76853;48.008;20.694;2024-02-26T00:24:09;98951.59;;;9.21;91.37
86202;BME280;76853;48.008;20.694;2024-02-26T00:25:15;98941.22;;;9.21;92.02
86202;BME280;76853;48.008;20.694;2024-02-26T00:26:19;98943.66;;;9.23;91.71
86202;BME280;76853;48.008;20.694;2024-02-26T00:27:22;98942.47;;;9.25;91.55
86202;BME280;76853;48.008;20.694;2024-02-26T00:28:26;98944.06;;;9.26;91.41
86202;BME280;76853;48.008;20.694;2024-02-26T00:29:30;98938.88;;;9.26;91.28
86202;BME280;76853;48.008;20.694;2024-02-26T00:30:35;98945.66;;;9.27;91.80
86202;BME280;76853;48.008;20.694;2024-02-26T00:31:38;98950.84;;;9.27;91.55
86202;BME280;76853;48.008;20.694;2024-02-26T00:32:45;98944.44;;;9.23;91.70
86202;BME280;76853;48.008;20.694;2024-02-26T00:33:50;98953.19;;;9.22;91.70
86202;BME280;76853;48.008;20.694;2024-02-26T00:34:54;98946.00;;;9.18;91.86
86202;BME280;76853;48.008;20.694;2024-02-26T00:35:57;98940.81;;;9.18;91.33
86202;BME280;76853;48.008;20.694;2024-02-26T00:37:02;98938.41;;;9.16;91.48
86202;BME280;76853;48.008;20.694;2024-02-26T00:38:05;98934.19;;;9.15;91.52
86202;BME280;76853;48.008;20.694;2024-02-26T00:39:09;98930.63;;;9.16;91.58
86202;BME280;76853;48.008;20.694;2024-02-26T00:40:16;98932.38;;;9.16;91.75
86202;BME280;76853;48.008;20.694;2024-02-26T00:41:20;98939.38;;;9.15;91.67
86202;BME280;76853;48.008;20.694;2024-02-26T00:42:26;98943.94;;;9.13;91.65
86202;BME280;76853;48.008;20.694;2024-02-26T00:43:29;98939.56;;;9.14;91.41
86202;BME280;76853;48.008;20.694;2024-02-26T00:44:32;98928.34;;;9.07;92.19
86202;BME280;76853;48.008;20.694;2024-02-26T00:45:36;98933.50;;;9.07;91.74
86202;BME280;76853;48.008;20.694;2024-02-26T00:46:39;98925.53;;;9.08;91.97
86202;BME280;76853;48.008;20.694;2024-02-26T00:47:43;98928.78;;;9.10;91.90
86202;BME280;76853;48.008;20.694;2024-02-26T00:48:48;98924.41;;;9.11;91.44
86202;BME280;76853;48.008;20.694;2024-02-26T00:49:51;98924.56;;;9.09;91.22
86202;BME280;76853;48.008;20.694;2024-02-26T00:50:56;98922.41;;;9.13;91.74
86202;BME280;76853;48.008;20.694;2024-02-26T00:52:01;98926.78;;;9.12;91.64
86202;BME280;76853;48.008;20.694;2024-02-26T00:53:05;98926.00;;;9.12;91.11
86202;BME280;76853;48.008;20.694;2024-02-26T00:54:08;98924.41;;;9.11;91.24
86202;BME280;76853;48.008;20.694;2024-02-26T00:55:12;98921.81;;;9.11;91.65
86202;BME280;76853;48.008;20.694;2024-02-26T00:56:16;98925.81;;;9.13;91.29
86202;BME280;76853;48.008;20.694;2024-02-26T00:57:21;98932.59;;;9.14;91.10
86202;BME280;76853;48.008;20.694;2024-02-26T00:58:25;98929.81;;;9.16;91.70
86202;BME280;76853;48.008;20.694;2024-02-26T00:59:29;98933.56;;;9.13;91.33
86202;BME280;76853;48.008;20.694;2024-02-26T01:00:33;98932.78;;;9.13;91.39
86202;BME280;76853;48.008;20.694;2024-02-26T01:01:36;98932.38;;;9.16;90.98
86202;BME280;76853;48.008;20.694;2024-02-26T01:02:40;98933.78;;;9.12;91.58
86202;BME280;76853;48.008;20.694;2024-02-26T01:03:47;98944.13;;;9.12;91.66
86202;BME280;76853;48.008;20.694;2024-02-26T01:04:52;98939.16;;;9.10;91.16
86202;BME280;76853;48.008;20.694;2024-02-26T01:05:55;98937.50;;;9.09;91.22
86202;BME280;76853;48.008;20.694;2024-02-26T01:07:02;98936.91;;;9.07;91.48
86202;BME280;76853;48.008;20.694;2024-02-26T01:08:06;98927.91;;;9.03;92.01
86202;BME280;76853;48.008;20.694;2024-02-26T01:09:09;98934.88;;;9.02;91.89
86202;BME280;76853;48.008;20.694;2024-02-26T01:10:13;98938.91;;;9.05;91.84
86202;BME280;76853;48.008;20.694;2024-02-26T01:11:16;98926.28;;;9.02;91.93
86202;BME280;76853;48.008;20.694;2024-02-26T01:12:19;98925.13;;;9.05;91.56
86202;BME280;76853;48.008;20.694;2024-02-26T01:13:23;98931.47;;;9.02;91.52
86202;BME280;76853;48.008;20.694;2024-02-26T01:14:26;98929.50;;;9.04;91.76
86202;BME280;76853;48.008;20.694;2024-02-26T01:15:31;98920.50;;;9.00;92.10
86202;BME280;76853;48.008;20.694;2024-02-26T01:16:34;98923.53;;;9.04;91.81
86202;BME280;76853;48.008;20.694;2024-02-26T01:17:38;98925.31;;;9.03;91.88
86202;BME280;76853;48.008;20.694;2024-02-26T01:18:43;98916.38;;;9.06;91.79
86202;BME280;76853;48.008;20.694;2024-02-26T01:19:48;98914.13;;;9.02;92.19
86202;BME280;76853;48.008;20.694;2024-02-26T01:20:53;98909.94;;;9.01;91.88
86202;BME280;76853;48.008;20.694;2024-02-26T01:21:57;98908.13;;;9.02;91.82
86202;BME280;76853;48.008;20.694;2024-02-26T01:23:16;98903.59;;;9.04;91.86
86202;BME280;76853;48.008;20.694;2024-02-26T01:24:20;98906.34;;;9.02;91.89
86202;BME280;76853;48.008;20.694;2024-02-26T01:25:25;98898.56;;;9.02;91.89
86202;BME280;76853;48.008;20.694;2024-02-26T01:26:28;98903.59;;;9.04;92.23
86202;BME280;76853;48.008;20.694;2024-02-26T01:27:34;98908.78;;;9.04;92.29
86202;BME280;76853;48.008;20.694;2024-02-26T01:28:37;98901.81;;;9.05;92.34
86202;BME280;76853;48.008;20.694;2024-02-26T01:29:45;98904.81;;;9.08;91.69
86202;BME280;76853;48.008;20.694;2024-02-26T01:30:51;98901.22;;;9.09;92.10
86202;BME280;76853;48.008;20.694;2024-02-26T01:31:54;98902.84;;;9.10;91.47
86202;BME280;76853;48.008;20.694;2024-02-26T01:32:58;98907.03;;;9.11;91.68
86202;BME280;76853;48.008;20.694;2024-02-26T01:34:02;98907.41;;;9.08;92.27
86202;BME280;76853;48.008;20.694;2024-02-26T01:35:06;98908.84;;;9.11;91.90
86202;BME280;76853;48.008;20.694;2024-02-26T01:36:13;98905.44;;;9.10;91.39
86202;BME280;76853;48.008;20.694;2024-02-26T01:37:19;98904.25;;;9.13;91.26
86202;BME280;76853;48.008;20.694;2024-02-26T01:38:23;98904.25;;;9.13;91.58
86202;BME280;76853;48.008;20.694;2024-02-26T01:39:26;98912.03;;;9.13;91.70
86202;BME280;76853;48.008;20.694;2024-02-26T01:40:32;98910.06;;;9.15;91.72
86202;BME280;76853;48.008;20.694;2024-02-26T01:41:35;98906.31;;;9.17;91.56
86202;BME280;76853;48.008;20.694;2024-02-26T01:42:39;98913.28;;;9.17;91.12
86202;BME280;76853;48.008;20.694;2024-02-26T01:43:42;98905.66;;;9.15;91.12
86202;BME280;76853;48.008;20.694;2024-02-26T01:44:45;98901.28;;;9.16;91.76
86202;BME280;76853;48.008;20.694;2024-02-26T01:45:48;98906.25;;;9.11;91.68
86202;BME280;76853;48.008;20.694;2024-02-26T01:46:53;98903.47;;;9.12;91.36
86202;BME280;76853;48.008;20.694;2024-02-26T01:47:57;98900.47;;;9.15;91.61
86202;BME280;76853;48.008;20.694;2024-02-26T01:49:02;98904.69;;;9.16;91.35
86202;BME280;76853;48.008;20.694;2024-02-26T01:50:08;98893.28;;;9.11;91.30
86202;BME280;76853;48.008;20.694;2024-02-26T01:51:12;98895.06;;;9.10;91.96
86202;BME280;76853;48.008;20.694;2024-02-26T01:52:17;98894.09;;;9.11;91.51
86202;BME280;76853;48.008;20.694;2024-02-26T01:53:24;98895.50;;;9.14;91.24
86202;BME280;76853;48.008;20.694;2024-02-26T01:54:28;98895.50;;;9.14;91.72
86202;BME280;76853;48.008;20.694;2024-02-26T01:55:33;98896.88;;;9.10;91.50
86202;BME280;76853;48.008;20.694;2024-02-26T01:56:38;98891.44;;;9.05;91.79
86202;BME280;76853;48.008;20.694;2024-02-26T01:57:44;98891.63;;;9.03;91.64
86202;BME280;76853;48.008;20.694;2024-02-26T01:58:48;98895.63;;;9.06;91.78
86202;BME280;76853;48.008;20.694;2024-02-26T01:59:52;98892.59;;;9.02;91.91
86202;BME280;76853;48.008;20.694;2024-02-26T02:00:57;98889.44;;;9.07;91.67
86202;BME280;76853;48.008;20.694;2024-02-26T02:02:07;98887.03;;;9.05;91.53
86202;BME280;76853;48.008;20.694;2024-02-26T02:03:13;98885.00;;;9.00;91.65
86202;BME280;76853;48.008;20.694;2024-02-26T02:04:17;98893.59;;;9.01;92.27
86202;BME280;76853;48.008;20.694;2024-02-26T02:05:24;98891.84;;;9.08;92.13
86202;BME280;76853;48.008;20.694;2024-02-26T02:06:28;98894.63;;;9.07;92.22
86202;BME280;76853;48.008;20.694;2024-02-26T02:07:32;98896.81;;;9.03;92.02
86202;BME280;76853;48.008;20.694;2024-02-26T02:08:35;98894.03;;;9.05;92.13
86202;BME280;76853;48.008;20.694;2024-02-26T02:09:39;98892.78;;;9.00;92.27
86202;BME280;76853;48.008;20.694;2024-02-26T02:10:45;98896.09;;;8.94;92.00
86202;BME280;76853;48.008;20.694;2024-02-26T02:11:51;98900.16;;;8.97;92.41
86202;BME280;76853;48.008;20.694;2024-02-26T02:12:54;98895.38;;;9.00;92.14
86202;BME280;76853;48.008;20.694;2024-02-26T02:13:58;98896.16;;;9.01;91.57
86202;BME280;76853;48.008;20.694;2024-02-26T02:15:01;98892.38;;;8.97;91.94
86202;BME280;76853;48.008;20.694;2024-02-26T02:16:07;98898.34;;;8.97;91.79
86202;BME280;76853;48.008;20.694;2024-02-26T02:17:12;98891.97;;;9.00;91.68
86202;BME280;76853;48.008;20.694;2024-02-26T02:18:15;98892.53;;;8.95;92.25
86202;BME280;76853;48.008;20.694;2024-02-26T02:19:19;98889.94;;;8.95;91.85
86202;BME280;76853;48.008;20.694;2024-02-26T02:20:32;98901.94;;;8.96;92.61
86202;BME280;76853;48.008;20.694;2024-02-26T02:21:38;98896.31;;;8.93;92.10
86202;BME280;76853;48.008;20.694;2024-02-26T02:22:44;98898.28;;;8.91;92.64
86202;BME280;76853;48.008;20.694;2024-02-26T02:23:48;98893.53;;;8.94;92.51
86202;BME280;76853;48.008;20.694;2024-02-26T02:24:53;98897.72;;;8.95;92.50
86202;BME280;76853;48.008;20.694;2024-02-26T02:25:58;98896.38;;;8.99;92.12
86202;BME280;76853;48.008;20.694;2024-02-26T02:27:05;98894.56;;;9.00;91.95
86202;BME280;76853;48.008;20.694;2024-02-26T02:28:09;98904.94;;;9.00;91.66
86202;BME280;76853;48.008;20.694;2024-02-26T02:29:14;98908.28;;;8.94;91.95
86202;BME280;76853;48.008;20.694;2024-02-26T02:30:18;98896.91;;;8.95;92.10
86202;BME280;76853;48.008;20.694;2024-02-26T02:31:23;98905.69;;;8.94;92.47
86202;BME280;76853;48.008;20.694;2024-02-26T02:32:27;98901.69;;;8.91;92.50
86202;BME280;76853;48.008;20.694;2024-02-26T02:33:34;98903.47;;;8.91;92.01
86202;BME280;76853;48.008;20.694;2024-02-26T02:34:38;98901.88;;;8.90;92.03
86202;BME280;76853;48.008;20.694;2024-02-26T02:35:42;98909.47;;;8.91;92.30
86202;BME280;76853;48.008;20.694;2024-02-26T02:36:52;98903.47;;;8.91;92.37
86202;BME280;76853;48.008;20.694;2024-02-26T02:37:57;98906.66;;;8.93;92.25
86202;BME280;76853;48.008;20.694;2024-02-26T02:39:01;98905.88;;;8.92;91.84
86202;BME280;76853;48.008;20.694;2024-02-26T02:40:04;98911.84;;;8.93;92.23
86202;BME280;76853;48.008;20.694;2024-02-26T02:41:08;98909.66;;;8.90;92.63
86202;BME280;76853;48.008;20.694;2024-02-26T02:42:11;98909.66;;;8.90;92.49
86202;BME280;76853;48.008;20.694;2024-02-26T02:43:15;98911.00;;;8.86;92.87
86202;BME280;76853;48.008;20.694;2024-02-26T02:44:18;98916.16;;;8.86;92.47
86202;BME280;76853;48.008;20.694;2024-02-26T02:45:22;98906.22;;;8.89;92.75
86202;BME280;76853;48.008;20.694;2024-02-26T02:46:28;98908.09;;;8.95;92.19
86202;BME280;76853;48.008;20.694;2024-02-26T02:47:31;98913.44;;;8.94;91.96
86202;BME280;76853;48.008;20.694;2024-02-26T02:48:34;98917.22;;;8.91;92.24
86202;BME280;76853;48.008;20.694;2024-02-26T02:49:37;98909.25;;;8.93;92.19
86202;BME280;76853;48.008;20.694;2024-02-26T02:50:42;98905.69;;;8.94;92.18
86202;BME280;76853;48.008;20.694;2024-02-26T02:51:45;98899.50;;;8.95;92.00
86202;BME280;76853;48.008;20.694;2024-02-26T02:52:48;98900.69;;;8.92;92.24
86202;BME280;76853;48.008;20.694;2024-02-26T02:53:56;98900.25;;;8.89;92.07
86202;BME280;76853;48.008;20.694;2024-02-26T02:54:59;98899.69;;;8.93;92.07
86202;BME280;76853;48.008;20.694;2024-02-26T02:56:03;98904.09;;;8.93;92.01
86202;BME280;76853;48.008;20.694;2024-02-26T02:57:06;98906.47;;;8.94;91.89
86202;BME280;76853;48.008;20.694;2024-02-26T02:58:09;98901.69;;;8.91;92.06
86202;BME280;76853;48.008;20.694;2024-02-26T02:59:12;98900.25;;;8.89;92.20
86202;BME280;76853;48.008;20.694;2024-02-26T03:00:16;98900.03;;;8.84;92.81
86202;BME280;76853;48.008;20.694;2024-02-26T03:01:20;98895.81;;;8.83;92.24
86202;BME280;76853;48.008;20.694;2024-02-26T03:02:26;98904.22;;;8.85;92.16
86202;BME280;76853;48.008;20.694;2024-02-26T03:03:29;98900.38;;;8.81;92.90
86202;BME280;76853;48.008;20.694;2024-02-26T03:04:35;98900.03;;;8.84;92.69
86202;BME280;76853;48.008;20.694;2024-02-26T03:05:38;98898.66;;;8.88;92.53
86202;BME280;76853;48.008;20.694;2024-02-26T03:06:41;98899.44;;;8.88;92.35
86202;BME280;76853;48.008;20.694;2024-02-26T03:07:47;98902.84;;;8.89;92.08
86202;BME280;76853;48.008;20.694;2024-02-26T03:08:51;98898.84;;;8.86;92.07
86202;BME280;76853;48.008;20.694;2024-02-26T03:09:55;98904.56;;;8.82;92.82
86202;BME280;76853;48.008;20.694;2024-02-26T03:10:59;98902.16;;;8.80;92.74
86202;BME280;76853;48.008;20.694;2024-02-26T03:12:03;98895.44;;;8.86;92.92
86202;BME280;76853;48.008;20.694;2024-02-26T03:13:06;98894.44;;;8.87;92.32
86202;BME280;76853;48.008;20.694;2024-02-26T03:14:10;98896.69;;;8.90;92.49
86202;BME280;76853;48.008;20.694;2024-02-26T03:15:13;98891.13;;;8.93;92.64
86202;BME280;76853;48.008;20.694;2024-02-26T03:16:17;98896.69;;;8.90;92.26
86202;BME280;76853;48.008;20.694;2024-02-26T03:17:21;98888.91;;;8.90;91.84
86202;BME280;76853;48.008;20.694;2024-02-26T03:18:29;98897.28;;;8.92;91.75
86202;BME280;76853;48.008;20.694;2024-02-26T03:19:34;98895.06;;;8.89;92.00
86202;BME280;76853;48.008;20.694;2024-02-26T03:20:37;98892.25;;;8.84;92.22
86202;BME280;76853;48.008;20.694;2024-02-26T03:21:40;98894.78;;;8.77;92.71
86202;BME280;76853;48.008;20.694;2024-02-26T03:22:44;98890.94;;;8.73;92.41
86202;BME280;76853;48.008;20.694;2024-02-26T03:23:47;98895.31;;;8.72;92.95
86202;BME280;76853;48.008;20.694;2024-02-26T03:24:52;98891.31;;;8.70;92.59
86202;BME280;76853;48.008;20.694;2024-02-26T03:25:55;98892.13;;;8.70;92.60
86202;BME280;76853;48.008;20.694;2024-02-26T03:26:59;98888.72;;;8.70;92.89
86202;BME280;76853;48.008;20.694;2024-02-26T03:28:02;98894.69;;;8.70;92.74
86202;BME280;76853;48.008;20.694;2024-02-26T03:29:06;98895.69;;;8.69;92.78
86202;BME280;76853;48.008;20.694;2024-02-26T03:30:10;98889.69;;;8.69;92.69
86202;BME280;76853;48.008;20.694;2024-02-26T03:31:14;98892.72;;;8.72;91.99
86202;BME280;76853;48.008;20.694;2024-02-26T03:32:18;98890.31;;;8.71;91.85
86202;BME280;76853;48.008;20.694;2024-02-26T03:33:21;98893.72;;;8.71;91.82
86202;BME280;76853;48.008;20.694;2024-02-26T03:34:24;98892.84;;;8.64;91.97
86202;BME280;76853;48.008;20.694;2024-02-26T03:35:30;98893.66;;;8.65;92.24
86202;BME280;76853;48.008;20.694;2024-02-26T03:36:34;98888.28;;;8.66;91.96
86202;BME280;76853;48.008;20.694;2024-02-26T03:37:37;98895.06;;;8.67;92.53
86202;BME280;76853;48.008;20.694;2024-02-26T03:38:40;98898.03;;;8.64;92.21
86202;BME280;76853;48.008;20.694;2024-02-26T03:39:44;98889.19;;;8.59;92.31
86202;BME280;76853;48.008;20.694;2024-02-26T03:40:47;98892.03;;;8.64;92.41
86202;BME280;76853;48.008;20.694;2024-02-26T03:41:52;98887.28;;;8.67;92.05
86202;BME280;76853;48.008;20.694;2024-02-26T03:42:55;98892.66;;;8.66;92.04
86202;BME280;76853;48.008;20.694;2024-02-26T03:44:00;98885.06;;;8.64;91.97
86202;BME280;76853;48.008;20.694;2024-02-26T03:45:04;98885.63;;;8.60;92.70
86202;BME280;76853;48.008;20.694;2024-02-26T03:46:11;98886.22;;;8.62;92.06
86202;BME280;76853;48.008;20.694;2024-02-26T03:47:17;98886.47;;;8.67;92.00
86202;BME280;76853;48.008;20.694;2024-02-26T03:48:20;98890.25;;;8.64;92.32
86202;BME280;76853;48.008;20.694;2024-02-26T03:49:24;98888.00;;;8.61;92.74
86202;BME280;76853;48.008;20.694;2024-02-26T03:50:28;98891.16;;;8.57;92.97
86202;BME280;76853;48.008;20.694;2024-02-26T03:51:31;98884.19;;;8.57;93.09
86202;BME280;76853;48.008;20.694;2024-02-26T03:52:36;98891.97;;;8.57;92.35
86202;BME280;76853;48.008;20.694;2024-02-26T03:53:39;98896.34;;;8.57;92.65
86202;BME280;76853;48.008;20.694;2024-02-26T03:54:43;98885.00;;;8.58;92.91
86202;BME280;76853;48.008;20.694;2024-02-26T03:55:46;98891.59;;;8.60;92.61
86202;BME280;76853;48.008;20.694;2024-02-26T03:56:50;98890.44;;;8.63;92.35
86202;BME280;76853;48.008;20.694;2024-02-26T03:57:53;98894.00;;;8.62;92.21
86202;BME280;76853;48.008;20.694;2024-02-26T03:58:56;98896.44;;;8.63;92.61
86202;BME280;76853;48.008;20.694;2024-02-26T04:00:00;98899.44;;;8.67;92.16
86202;BME280;76853;48.008;20.694;2024-02-26T04:01:12;98899.63;;;8.65;92.18
86202;BME280;76853;48.008;20.694;2024-02-26T04:02:16;98901.59;;;8.63;92.10
86202;BME280;76853;48.008;20.694;2024-02-26T04:03:19;98895.38;;;8.58;92.29
86202;BME280;76853;48.008;20.694;2024-02-26T04:04:22;98906.53;;;8.58;92.65
86202;BME280;76853;48.008;20.694;2024-02-26T04:05:28;98904.19;;;8.63;92.53
86202;BME280;76853;48.008;20.694;2024-02-26T04:06:31;98903.00;;;8.66;92.63
86202;BME280;76853;48.008;20.694;2024-02-26T04:07:35;98901.84;;;8.68;92.40
86202;BME280;76853;48.008;20.694;2024-02-26T04:08:38;98905.22;;;8.69;92.11
86202;BME280;76853;48.008;20.694;2024-02-26T04:09:42;98905.41;;;8.67;92.38
86202;BME280;76853;48.008;20.694;2024-02-26T04:10:46;98904.06;;;8.71;92.06
86202;BME280;76853;48.008;20.694;2024-02-26T04:11:49;98909.78;;;8.67;92.20
86202;BME280;76853;48.008;20.694;2024-02-26T04:12:53;98898.81;;;8.65;92.93
86202;BME280;76853;48.008;20.694;2024-02-26T04:13:56;98899.81;;;8.64;92.77
86202;BME280;76853;48.008;20.694;2024-02-26T04:14:59;98898.81;;;8.65;93.07
86202;BME280;76853;48.008;20.694;2024-02-26T04:16:04;98903.22;;;8.64;92.99
86202;BME280;76853;48.008;20.694;2024-02-26T04:17:07;98909.38;;;8.63;93.01
86202;BME280;76853;48.008;20.694;2024-02-26T04:18:11;98898.03;;;8.64;92.71
86202;BME280;76853;48.008;20.694;2024-02-26T04:19:15;98913.91;;;8.61;92.82
86202;BME280;76853;48.008;20.694;2024-02-26T04:20:19;98910.19;;;8.64;92.72
86202;BME280;76853;48.008;20.694;2024-02-26T04:21:22;98909.19;;;8.65;93.05
86202;BME280;76853;48.008;20.694;2024-02-26T04:22:26;98908.56;;;8.63;92.94
86202;BME280;76853;48.008;20.694;2024-02-26T04:23:30;98905.53;;;8.59;93.15
86202;BME280;76853;48.008;20.694;2024-02-26T04:24:36;98907.13;;;8.60;93.57
86202;BME280;76853;48.008;20.694;2024-02-26T04:25:39;98914.56;;;8.63;93.63
86202;BME280;76853;48.008;20.694;2024-02-26T04:26:42;98913.13;;;8.61;93.56
86202;BME280;76853;48.008;20.694;2024-02-26T04:27:47;98914.72;;;8.62;93.14
86202;BME280;76853;48.008;20.694;2024-02-26T04:28:50;98915.78;;;8.67;93.02
86202;BME280;76853;48.008;20.694;2024-02-26T04:29:55;98914.78;;;8.68;92.90
86202;BME280;76853;48.008;20.694;2024-02-26T04:30:58;98906.41;;;8.66;92.70
86202;BME280;76853;48.008;20.694;2024-02-26T04:32:02;98914.25;;;8.73;92.60
86202;BME280;76853;48.008;20.694;2024-02-26T04:33:05;98916.50;;;8.76;92.89
86202;BME280;76853;48.008;20.694;2024-02-26T04:34:08;98915.31;;;8.79;92.27
86202;BME280;76853;48.008;20.694;2024-02-26T04:35:17;98920.22;;;8.73;92.72
86202;BME280;76853;48.008;20.694;2024-02-26T04:36:20;98905.28;;;8.76;93.01
86202;BME280;76853;48.008;20.694;2024-02-26T04:37:27;98907.09;;;8.75;92.46
86202;BME280;76853;48.008;20.694;2024-02-26T04:38:34;98916.28;;;8.78;92.57
86202;BME280;76853;48.008;20.694;2024-02-26T04:39:39;98908.53;;;8.78;92.88
86202;BME280;76853;48.008;20.694;2024-02-26T04:40:42;98918.50;;;8.81;92.44
86202;BME280;76853;48.008;20.694;2024-02-26T04:41:45;98909.75;;;8.82;92.62
86202;BME280;76853;48.008;20.694;2024-02-26T04:42:50;98916.56;;;8.83;92.39
86202;BME280;76853;48.008;20.694;2024-02-26T04:43:53;98910.78;;;8.87;92.66
86202;BME280;76853;48.008;20.694;2024-02-26T04:44:56;98907.41;;;8.87;92.34
86202;BME280;76853;48.008;20.694;2024-02-26T04:46:00;98911.00;;;8.86;92.42
86202;BME280;76853;48.008;20.694;2024-02-26T04:47:03;98918.75;;;8.86;92.48
86202;BME280;76853;48.008;20.694;2024-02-26T04:48:07;98909.75;;;8.82;92.53
86202;BME280;76853;48.008;20.694;2024-02-26T04:49:13;98911.38;;;8.83;92.64
86202;BME280;76853;48.008;20.694;2024-02-26T04:50:16;98915.91;;;8.81;92.70
86202;BME280;76853;48.008;20.694;2024-02-26T04:51:19;98909.59;;;8.83;92.70
86202;BME280;76853;48.008;20.694;2024-02-26T04:52:22;98907.78;;;8.84;92.64
86202;BME280;76853;48.008;20.694;2024-02-26T04:53:26;98919.16;;;8.83;92.54
86202;BME280;76853;48.008;20.694;2024-02-26T04:54:30;98911.00;;;8.86;92.26
86202;BME280;76853;48.008;20.694;2024-02-26T04:55:37;98914.19;;;8.88;92.51
86202;BME280;76853;48.008;20.694;2024-02-26T04:56:41;98908.94;;;8.81;92.64
86202;BME280;76853;48.008;20.694;2024-02-26T04:57:44;98907.94;;;8.82;92.73
86202;BME280;76853;48.008;20.694;2024-02-26T04:58:48;98908.22;;;8.87;92.86
86202;BME280;76853;48.008;20.694;2024-02-26T04:59:52;98909.47;;;8.91;92.43
86202;BME280;76853;48.008;20.694;2024-02-26T05:00:55;98914.25;;;8.94;92.42
86202;BME280;76853;48.008;20.694;2024-02-26T05:01:58;98915.25;;;8.93;92.33
86202;BME280;76853;48.008;20.694;2024-02-26T05:03:02;98919.63;;;8.93;92.05
86202;BME280;76853;48.008;20.694;2024-02-26T05:04:05;98911.47;;;8.96;92.12
86202;BME280;76853;48.008;20.694;2024-02-26T05:05:09;98916.66;;;8.96;92.31
86202;BME280;76853;48.008;20.694;2024-02-26T05:06:12;98915.25;;;8.93;92.63
86202;BME280;76853;48.008;20.694;2024-02-26T05:07:16;98915.31;;;9.00;92.34
86202;BME280;76853;48.008;20.694;2024-02-26T05:08:22;98916.91;;;9.01;92.06
86202;BME280;76853;48.008;20.694;2024-02-26T05:09:26;98920.13;;;9.03;92.14
86202;BME280;76853;48.008;20.694;2024-02-26T05:10:29;98916.31;;;8.99;92.52
86202;BME280;76853;48.008;20.694;2024-02-26T05:11:33;98920.81;;;8.90;92.43
86202;BME280;76853;48.008;20.694;2024-02-26T05:12:36;98917.97;;;8.85;91.83
86202;BME280;76853;48.008;20.694;2024-02-26T05:13:41;98913.97;;;8.83;92.40
86202;BME280;76853;48.008;20.694;2024-02-26T05:14:44;98913.59;;;8.86;92.02
86202;BME280;76853;48.008;20.694;2024-02-26T05:15:47;98916.16;;;8.86;91.84
86202;BME280;76853;48.008;20.694;2024-02-26T05:16:52;98912.97;;;8.84;92.02
86202;BME280;76853;48.008;20.694;2024-02-26T05:17:55;98917.50;;;8.82;92.19
86202;BME280;76853;48.008;20.694;2024-02-26T05:18:59;98913.97;;;8.83;91.97
86202;BME280;76853;48.008;20.694;2024-02-26T05:20:03;98913.69;;;8.78;92.28
86202;BME280;76853;48.008;20.694;2024-02-26T05:21:06;98918.44;;;8.74;92.10
86202;BME280;76853;48.008;20.694;2024-02-26T05:22:10;98915.84;;;8.74;92.42
86202;BME280;76853;48.008;20.694;2024-02-26T05:23:13;98915.25;;;8.72;92.30
86202;BME280;76853;48.008;20.694;2024-02-26T05:24:17;98919.06;;;8.76;92.41
86202;BME280;76853;48.008;20.694;2024-02-26T05:25:21;98923.28;;;8.77;92.12
86202;BME280;76853;48.008;20.694;2024-02-26T05:26:25;98907.47;;;8.72;92.44
86202;BME280;76853;48.008;20.694;2024-02-26T05:27:28;98914.44;;;8.71;92.19
86202;BME280;76853;48.008;20.694;2024-02-26T05:28:32;98914.69;;;8.77;92.30
86202;BME280;76853;48.008;20.694;2024-02-26T05:29:35;98916.50;;;8.76;92.26
86202;BME280;76853;48.008;20.694;2024-02-26T05:30:39;98919.16;;;8.83;92.34
86202;BME280;76853;48.008;20.694;2024-02-26T05:31:48;98922.34;;;8.85;92.07
86202;BME280;76853;48.008;20.694;2024-02-26T05:32:51;98922.09;;;8.80;92.45
86202;BME280;76853;48.008;20.694;2024-02-26T05:33:56;98919.16;;;8.83;92.41
86202;BME280;76853;48.008;20.694;2024-02-26T05:35:00;98916.38;;;8.84;92.40
86202;BME280;76853;48.008;20.694;2024-02-26T05:36:03;98916.09;;;8.79;92.73
86202;BME280;76853;48.008;20.694;2024-02-26T05:37:08;98919.50;;;8.80;92.58
86202;BME280;76853;48.008;20.694;2024-02-26T05:38:13;98916.28;;;8.78;92.58
86202;BME280;76853;48.008;20.694;2024-02-26T05:39:17;98923.88;;;8.79;92.50
86202;BME280;76853;48.008;20.694;2024-02-26T05:40:23;98921.28;;;8.79;92.60